createdAt,value
2023-07-21T00:01:10.677Z,87.6
2023-07-21T00:02:25.978Z,86.5
2023-07-21T00:03:42.286Z,85.5
2023-07-21T00:04:58.571Z,86.6
2023-07-21T00:06:14.875Z,86.5
2023-07-21T00:07:31.168Z,86.3
2023-07-21T00:08:47.451Z,88.4
2023-07-21T00:10:03.744Z,90.2
2023-07-21T00:11:20.043Z,90.8
2023-07-21T00:12:36.324Z,89.7
2023-07-21T00:13:51.651Z,89.9
2023-07-21T00:15:06.965Z,91.7
2023-07-21T00:16:23.246Z,91.4
2023-07-21T00:17:39.537Z,90.5
2023-07-21T00:18:55.849Z,89.4
2023-07-21T00:20:12.132Z,89.8
2023-07-21T00:22:44.731Z,90.3
2023-07-21T00:24:01.016Z,90.8
2023-07-21T00:25:17.300Z,90.9
2023-07-21T00:26:33.598Z,90.9
2023-07-21T00:27:49.895Z,91
2023-07-21T00:30:22.494Z,91.5
2023-07-21T00:31:37.790Z,91.7
2023-07-21T00:32:53.104Z,91.8
2023-07-21T00:34:09.396Z,92.3
2023-07-21T00:35:25.698Z,92.8
2023-07-21T00:36:42.001Z,93.4
2023-07-21T00:37:58.000Z,93.4
2023-07-21T00:39:14.572Z,94.2
2023-07-21T00:40:30.875Z,94.5
2023-07-21T00:41:47.158Z,95.8
2023-07-21T00:43:03.457Z,95.2
2023-07-21T00:45:35.078Z,95.3
2023-07-21T00:46:51.478Z,95
2023-07-21T00:48:07.782Z,94.7
2023-07-21T00:49:24.064Z,93.8
2023-07-21T00:50:40.356Z,93.5
2023-07-21T00:51:56.658Z,93.8
2023-07-21T00:53:12.953Z,93.9
2023-07-21T00:54:29.251Z,92.8
2023-07-21T00:55:45.537Z,92.1
2023-07-21T00:57:01.848Z,93.5
2023-07-21T00:58:17.151Z,94.3
2023-07-21T01:00:48.762Z,93.6
2023-07-21T01:02:05.051Z,93.7
2023-07-21T01:03:21.352Z,93.8
2023-07-21T01:04:37.649Z,93.3
2023-07-21T01:05:53.929Z,92.7
2023-07-21T01:07:10.231Z,92.6
2023-07-21T01:08:26.520Z,93
2023-07-21T01:09:42.806Z,92.7
2023-07-21T01:10:59.116Z,92.6
2023-07-21T01:12:15.411Z,91.9
2023-07-21T01:13:31.685Z,91.9
2023-07-21T01:14:47.982Z,91.7
2023-07-21T01:16:03.307Z,91.5
2023-07-21T01:17:19.599Z,91.2
2023-07-21T01:18:35.881Z,91
2023-07-21T01:19:52.187Z,91.1
2023-07-21T01:21:08.481Z,90.2
2023-07-21T01:22:23.797Z,90
2023-07-21T01:23:40.088Z,90.3
2023-07-21T01:24:56.384Z,89.7
2023-07-21T01:26:12.677Z,90
2023-07-21T01:27:28.968Z,89.7
2023-07-21T01:28:45.265Z,90
2023-07-21T01:30:01.546Z,90
2023-07-21T01:31:17.849Z,90.4
2023-07-21T01:32:34.141Z,90.6
2023-07-21T01:33:50.430Z,90.6
2023-07-21T01:35:06.727Z,91.1
2023-07-21T01:36:23.029Z,91.2
2023-07-21T01:37:39.311Z,91.3
2023-07-21T01:38:54.639Z,91.6
2023-07-21T01:40:10.919Z,92.1
2023-07-21T01:41:27.225Z,91.3
2023-07-21T01:42:43.520Z,91.5
2023-07-21T01:43:59.801Z,91.7
2023-07-21T01:45:16.106Z,91.8
2023-07-21T01:46:32.402Z,91.1
2023-07-21T01:47:48.682Z,91
2023-07-21T01:50:21.282Z,90.3
2023-07-21T01:51:37.568Z,91.7
2023-07-21T01:52:53.875Z,91.5
2023-07-21T01:54:10.160Z,91.6
2023-07-21T01:55:25.469Z,91.1
2023-07-21T01:56:41.771Z,91.8
2023-07-21T01:57:58.047Z,91.1
2023-07-21T01:59:14.348Z,91.8
2023-07-21T02:00:30.650Z,91.5
2023-07-21T02:01:46.941Z,91.4
2023-07-21T02:03:03.224Z,90.9
2023-07-21T02:04:19.523Z,91
2023-07-21T02:05:35.811Z,90.1
2023-07-21T02:06:52.111Z,90.2
2023-07-21T02:08:08.413Z,90.2
2023-07-21T02:09:24.698Z,89.4
2023-07-21T02:10:40.988Z,89.2
2023-07-21T02:11:56.307Z,89.9
2023-07-21T02:14:28.900Z,87.3
2023-07-21T02:17:01.489Z,88
2023-07-21T02:18:17.780Z,87.9
2023-07-21T02:19:34.074Z,88
2023-07-21T02:20:50.362Z,87.6
2023-07-21T02:22:06.646Z,87.6
2023-07-21T02:23:22.952Z,88
2023-07-21T02:24:39.180Z,88.7
2023-07-21T02:25:55.484Z,87
2023-07-21T02:27:11.784Z,87.7
2023-07-21T02:28:28.183Z,87.3
2023-07-21T02:29:44.445Z,87.9
2023-07-21T02:31:00.678Z,88.5
2023-07-21T02:32:16.921Z,89
2023-07-21T02:33:33.153Z,89.8
2023-07-21T02:34:49.451Z,89
2023-07-21T02:36:05.758Z,87.9
2023-07-21T02:37:21.998Z,90.4
2023-07-21T02:38:38.249Z,90.1
2023-07-21T02:39:54.475Z,88.6
2023-07-21T02:41:10.722Z,89.1
2023-07-21T02:42:26.973Z,89.3
2023-07-21T02:43:43.203Z,90.2
2023-07-21T02:44:58.450Z,91.6
2023-07-21T02:46:14.707Z,91
2023-07-21T02:47:30.933Z,91.8
2023-07-21T02:48:47.175Z,92.7
2023-07-21T02:50:03.417Z,92.2
2023-07-21T02:51:19.655Z,92.7
2023-07-21T02:52:35.906Z,94.1
2023-07-21T02:53:52.135Z,93.3
2023-07-21T02:55:08.388Z,93.6
2023-07-21T02:56:24.629Z,94.4
2023-07-21T02:57:40.867Z,94
2023-07-21T02:58:57.105Z,94.2
2023-07-21T03:00:13.342Z,94.2
2023-07-21T03:01:28.606Z,94.6
2023-07-21T03:02:44.843Z,95.2
2023-07-21T03:04:01.075Z,95.5
2023-07-21T03:05:17.324Z,95.6
2023-07-21T03:06:33.561Z,95.9
2023-07-21T03:07:49.797Z,96
2023-07-21T03:09:06.035Z,95.8
2023-07-21T03:10:22.283Z,96.1
2023-07-21T03:11:38.514Z,96.4
2023-07-21T03:12:54.750Z,96.8
2023-07-21T03:14:10.993Z,97
2023-07-21T03:15:27.227Z,96.8
2023-07-21T03:16:43.481Z,97
2023-07-21T03:17:58.725Z,96.8
2023-07-21T03:19:14.977Z,97.1
2023-07-21T03:20:31.212Z,97.4
2023-07-21T03:21:47.452Z,97.8
2023-07-21T03:23:03.695Z,98.1
2023-07-21T03:24:19.934Z,98.7
2023-07-21T03:25:36.179Z,98.9
2023-07-21T03:26:52.414Z,98.9
2023-07-21T03:28:08.647Z,99
2023-07-21T03:29:24.899Z,99
2023-07-21T03:30:41.143Z,99.2
2023-07-21T03:31:57.381Z,99.2
2023-07-21T03:33:13.620Z,99
2023-07-21T03:34:28.875Z,98.2
2023-07-21T03:35:45.119Z,98.2
2023-07-21T03:37:01.348Z,98.2
2023-07-21T03:38:17.583Z,97.8
2023-07-21T03:39:33.827Z,97.3
2023-07-21T03:40:50.069Z,96.7
2023-07-21T03:42:06.304Z,96.4
2023-07-21T03:43:22.551Z,96
2023-07-21T03:44:38.792Z,95.8
2023-07-21T03:45:55.025Z,95.5
2023-07-21T03:47:11.271Z,95.3
2023-07-21T03:48:27.513Z,95.3
2023-07-21T03:49:43.742Z,95
2023-07-21T03:51:00.111Z,94.7
2023-07-21T03:52:16.348Z,94.3
2023-07-21T03:53:32.592Z,93.7
2023-07-21T03:54:48.840Z,93.6
2023-07-21T03:56:05.077Z,93.1
2023-07-21T03:57:21.305Z,92.7
2023-07-21T03:58:37.550Z,93.3
2023-07-21T03:59:53.792Z,93.1
2023-07-21T04:01:10.019Z,92.2
2023-07-21T04:02:26.259Z,92.1
2023-07-21T04:03:42.508Z,91.7
2023-07-21T04:04:58.753Z,91.3
2023-07-21T04:06:14.986Z,90.8
2023-07-21T04:07:30.244Z,90.6
2023-07-21T04:08:46.482Z,90.3
2023-07-21T04:10:02.721Z,90.3
2023-07-21T04:11:18.965Z,90
2023-07-21T04:12:35.201Z,89.3
2023-07-21T04:13:51.442Z,89.3
2023-07-21T04:15:07.681Z,89.4
2023-07-21T04:16:23.924Z,89.3
2023-07-21T04:17:40.163Z,89.6
2023-07-21T04:18:56.402Z,89.7
2023-07-21T04:20:12.632Z,90.2
2023-07-21T04:22:45.129Z,91
2023-07-21T04:24:00.374Z,91.2
2023-07-21T04:25:16.616Z,91.4
2023-07-21T04:26:32.857Z,91.6
2023-07-21T04:27:49.094Z,92.4
2023-07-21T04:29:05.343Z,92.4
2023-07-21T04:31:37.828Z,91.4
2023-07-21T04:32:54.047Z,91.1
2023-07-21T04:34:10.303Z,90.1
2023-07-21T04:35:26.537Z,90.7
2023-07-21T04:36:42.774Z,90.3
2023-07-21T04:37:59.018Z,90.1
2023-07-21T04:39:15.247Z,90.4
2023-07-21T04:40:30.503Z,90.5
2023-07-21T04:41:46.757Z,90.6
2023-07-21T04:43:03.001Z,89.6
2023-07-21T04:44:19.225Z,90.5
2023-07-21T04:45:35.461Z,90.5
2023-07-21T04:46:51.713Z,90.3
2023-07-21T04:49:24.182Z,90.3
2023-07-21T04:50:40.424Z,90
2023-07-21T04:51:56.680Z,90.7
2023-07-21T04:53:12.905Z,90.4
2023-07-21T04:55:45.389Z,90.3
2023-07-21T04:57:01.772Z,89.9
2023-07-21T04:58:17.026Z,90.6
2023-07-21T04:59:33.277Z,90.5
2023-07-21T05:00:49.506Z,90
2023-07-21T05:02:05.743Z,89.5
2023-07-21T05:03:21.991Z,89.4
2023-07-21T05:04:38.234Z,89.9
2023-07-21T05:05:54.467Z,89.3
2023-07-21T05:07:10.717Z,89.2
2023-07-21T05:08:26.946Z,88.7
2023-07-21T05:09:42.214Z,89.4
2023-07-21T05:10:57.463Z,89.6
2023-07-21T05:12:13.696Z,89
2023-07-21T05:13:29.943Z,88.8
2023-07-21T05:14:46.190Z,88.8
2023-07-21T05:16:02.418Z,88.5
2023-07-21T05:17:18.660Z,88.6
2023-07-21T05:19:51.141Z,88
2023-07-21T05:21:07.379Z,88.2
2023-07-21T05:22:23.612Z,88.5
2023-07-21T05:23:39.867Z,86.8
2023-07-21T05:24:56.101Z,87.4
2023-07-21T05:26:12.341Z,87.4
2023-07-21T05:27:27.590Z,87.6
2023-07-21T05:28:43.838Z,86.2
2023-07-21T05:30:00.069Z,85.3
2023-07-21T05:31:16.320Z,84.1
2023-07-21T05:32:32.553Z,84.9
2023-07-21T05:33:48.788Z,84.3
2023-07-21T05:35:05.032Z,84.3
2023-07-21T05:36:21.277Z,83.3
2023-07-21T05:37:37.523Z,84.5
2023-07-21T05:38:52.779Z,84.1
2023-07-21T05:40:09.024Z,83
2023-07-21T05:41:25.254Z,82.9
2023-07-21T05:42:41.501Z,82.6
2023-07-21T05:43:57.743Z,83.9
2023-07-21T05:45:13.980Z,82.7
2023-07-21T05:46:30.220Z,82.7
2023-07-21T05:47:46.466Z,83.6
2023-07-21T05:49:02.689Z,82.6
2023-07-21T05:50:18.934Z,82.4
2023-07-21T05:51:35.171Z,81.6
2023-07-21T05:52:51.408Z,81.2
2023-07-21T05:54:07.663Z,83.4
2023-07-21T05:55:24.024Z,82
2023-07-21T05:56:40.250Z,81.1
2023-07-21T05:57:56.494Z,81.1
2023-07-21T05:59:12.736Z,80.2
2023-07-21T06:00:28.972Z,80.3
2023-07-21T06:01:45.228Z,81.1
2023-07-21T06:03:01.448Z,79.8
2023-07-21T06:05:33.947Z,80
2023-07-21T06:06:50.178Z,82.1
2023-07-21T06:08:06.424Z,81
2023-07-21T06:09:22.654Z,83.6
2023-07-21T06:10:38.893Z,80.2
2023-07-21T06:11:54.156Z,79.2
2023-07-21T06:13:10.400Z,81.1
2023-07-21T06:14:26.622Z,83.5
2023-07-21T06:15:42.876Z,80.5
2023-07-21T06:16:59.117Z,79.6
2023-07-21T06:18:15.360Z,78.1
2023-07-21T06:19:31.591Z,79.2
2023-07-21T06:20:47.826Z,76.7
2023-07-21T06:22:04.073Z,78
2023-07-21T06:23:20.311Z,81.3
2023-07-21T06:24:36.557Z,79.4
2023-07-21T06:25:52.792Z,78.7
2023-07-21T06:27:09.022Z,78
2023-07-21T06:28:24.287Z,79.2
2023-07-21T06:29:40.535Z,79.8
2023-07-21T06:30:56.760Z,79.6
2023-07-21T06:32:12.999Z,78.8
2023-07-21T06:33:29.250Z,79.8
2023-07-21T06:34:45.489Z,78.2
2023-07-21T06:36:01.720Z,74.9
2023-07-21T06:37:17.963Z,75.3
2023-07-21T06:38:34.216Z,77.8
2023-07-21T06:39:50.436Z,79
2023-07-21T06:41:06.693Z,77.5
2023-07-21T06:42:22.925Z,76.6
2023-07-21T06:43:39.156Z,77.4
2023-07-21T06:44:54.428Z,76.4
2023-07-21T06:46:10.669Z,75.9
2023-07-21T06:47:26.902Z,78.7
2023-07-21T06:48:43.140Z,76.7
2023-07-21T06:49:59.388Z,78.2
2023-07-21T06:51:15.619Z,75.9
2023-07-21T06:52:31.862Z,77.3
2023-07-21T06:53:48.107Z,75.3
2023-07-21T06:55:04.335Z,77.3
2023-07-21T06:56:20.577Z,76.1
2023-07-21T06:57:36.812Z,77.1
2023-07-21T06:58:53.055Z,77.5
2023-07-21T07:00:09.290Z,77.3
2023-07-21T07:01:24.561Z,77.7
2023-07-21T07:02:40.805Z,78.4
2023-07-21T07:03:57.031Z,77.3
2023-07-21T07:05:13.268Z,78.4
2023-07-21T07:06:29.508Z,77.5
2023-07-21T07:07:45.750Z,78.9
2023-07-21T07:09:01.995Z,79.7
2023-07-21T07:10:18.232Z,79
2023-07-21T07:11:34.471Z,79.1
2023-07-21T07:12:50.704Z,79.3
2023-07-21T07:14:06.956Z,79.4
2023-07-21T07:15:23.189Z,80.8
2023-07-21T07:16:39.432Z,80.2
2023-07-21T07:17:54.690Z,79.6
2023-07-21T07:19:10.937Z,80.1
2023-07-21T07:20:27.173Z,80.2
2023-07-21T07:21:43.415Z,79
2023-07-21T07:22:59.637Z,77.8
2023-07-21T07:24:15.880Z,78.1
2023-07-21T07:25:32.127Z,79.9
2023-07-21T07:26:48.371Z,80.3
2023-07-21T07:28:04.597Z,80.6
2023-07-21T07:29:20.846Z,79.4
2023-07-21T07:30:37.075Z,79.2
2023-07-21T07:31:53.322Z,81.5
2023-07-21T07:33:09.573Z,79.3
2023-07-21T07:34:24.815Z,78.3
2023-07-21T07:35:41.051Z,78.3
2023-07-21T07:36:57.311Z,78.5
2023-07-21T07:38:13.541Z,77
2023-07-21T07:39:29.792Z,75.8
2023-07-21T07:40:46.010Z,76.6
2023-07-21T07:42:02.255Z,76.5
2023-07-21T07:43:18.503Z,75.1
2023-07-21T07:44:34.744Z,75.3
2023-07-21T07:45:50.987Z,75.7
2023-07-21T07:47:07.221Z,74.1
2023-07-21T07:48:23.460Z,76.9
2023-07-21T07:49:39.688Z,74.7
2023-07-21T07:50:54.965Z,76.1
2023-07-21T07:52:11.190Z,75.8
2023-07-21T07:53:27.440Z,75.9
2023-07-21T07:54:43.669Z,75.2
2023-07-21T07:55:59.906Z,76.8
2023-07-21T07:57:16.149Z,76.4
2023-07-21T07:58:32.385Z,76.6
2023-07-21T07:59:48.634Z,75.8
2023-07-21T08:01:04.864Z,75.4
2023-07-21T08:02:21.108Z,77.6
2023-07-21T08:03:37.362Z,76.6
2023-07-21T08:04:53.714Z,76
2023-07-21T08:07:26.178Z,76
2023-07-21T08:08:41.443Z,75.2
2023-07-21T08:09:57.671Z,75.3
2023-07-21T08:11:13.926Z,75.6
2023-07-21T08:12:30.161Z,76.8
2023-07-21T08:13:46.407Z,77.4
2023-07-21T08:15:02.639Z,77.1
2023-07-21T08:16:18.883Z,77.6
2023-07-21T08:17:35.117Z,77.3
2023-07-21T08:18:51.356Z,76.8
2023-07-21T08:20:07.590Z,76
2023-07-21T08:21:23.838Z,77
2023-07-21T08:22:40.084Z,76.6
2023-07-21T08:23:56.316Z,76.5
2023-07-21T08:25:11.579Z,77.1
2023-07-21T08:26:27.809Z,76.4
2023-07-21T08:27:44.065Z,76.2
2023-07-21T08:29:00.290Z,77
2023-07-21T08:30:16.541Z,76
2023-07-21T08:31:32.769Z,76.9
2023-07-21T08:32:49.007Z,76.2
2023-07-21T08:34:05.260Z,76.6
2023-07-21T08:35:21.504Z,76.7
2023-07-21T08:36:37.743Z,76.7
2023-07-21T08:37:53.977Z,77.2
2023-07-21T08:39:10.214Z,75.3
2023-07-21T08:40:26.457Z,75.7
2023-07-21T08:41:41.710Z,74.2
2023-07-21T08:42:57.949Z,73.8
2023-07-21T08:44:14.182Z,74.6
2023-07-21T08:45:30.422Z,75.5
2023-07-21T08:46:46.671Z,75.7
2023-07-21T08:48:02.904Z,75.5
2023-07-21T08:49:19.151Z,76.1
2023-07-21T08:50:35.377Z,76.5
2023-07-21T08:51:51.629Z,76.7
2023-07-21T08:53:07.868Z,77.3
2023-07-21T08:54:24.113Z,77.6
2023-07-21T08:55:40.338Z,76
2023-07-21T08:56:56.574Z,75.8
2023-07-21T08:58:11.844Z,76.4
2023-07-21T08:59:28.079Z,76.2
2023-07-21T09:00:44.311Z,75.7
2023-07-21T09:02:00.553Z,75.4
2023-07-21T09:03:16.791Z,75.3
2023-07-21T09:04:33.048Z,74.4
2023-07-21T09:05:49.286Z,74.8
2023-07-21T09:07:05.515Z,74.3
2023-07-21T09:08:21.765Z,75
2023-07-21T09:09:37.992Z,74.6
2023-07-21T09:10:54.245Z,74.8
2023-07-21T09:12:10.481Z,73.2
2023-07-21T09:13:26.721Z,72.9
2023-07-21T09:14:41.971Z,73.4
2023-07-21T09:15:58.217Z,73.7
2023-07-21T09:17:14.458Z,73.6
2023-07-21T09:18:30.692Z,72.9
2023-07-21T09:19:46.943Z,73.6
2023-07-21T09:21:03.176Z,73.9
2023-07-21T09:22:19.408Z,73.4
2023-07-21T09:23:35.656Z,74.6
2023-07-21T09:24:51.897Z,73.7
2023-07-21T09:26:08.135Z,73.8
2023-07-21T09:27:24.376Z,72.8
2023-07-21T09:28:40.608Z,72.2
2023-07-21T09:29:56.852Z,71.2
2023-07-21T09:31:12.107Z,70
2023-07-21T09:32:28.351Z,70.3
2023-07-21T09:33:44.588Z,71.5
2023-07-21T09:35:00.820Z,70.3
2023-07-21T09:36:17.068Z,70.3
2023-07-21T09:38:49.538Z,68.1
2023-07-21T09:40:05.778Z,68.4
2023-07-21T09:41:22.029Z,68
2023-07-21T09:42:38.267Z,67.4
2023-07-21T09:43:54.511Z,68.2
2023-07-21T09:45:10.747Z,67.8
2023-07-21T09:46:26.990Z,66.6
2023-07-21T09:47:42.237Z,67.7
2023-07-21T09:48:58.472Z,67.3
2023-07-21T09:50:14.728Z,67.3
2023-07-21T09:51:30.953Z,67.8
2023-07-21T09:52:47.202Z,66.7
2023-07-21T09:54:02.470Z,67
2023-07-21T09:55:18.710Z,67.6
2023-07-21T09:56:34.950Z,67.1
2023-07-21T09:57:51.179Z,67.2
2023-07-21T09:59:07.425Z,67.2
2023-07-21T10:00:23.661Z,67
2023-07-21T10:01:39.902Z,66.9
2023-07-21T10:02:56.142Z,67
2023-07-21T10:04:12.385Z,67.2
2023-07-21T10:05:28.615Z,67.1
2023-07-21T10:09:17.345Z,68.5
2023-07-21T10:10:32.597Z,67.7
2023-07-21T10:11:48.830Z,68.2
2023-07-21T10:13:05.077Z,68
2023-07-21T10:14:21.329Z,67.6
2023-07-21T10:15:37.556Z,66.8
2023-07-21T10:16:53.789Z,70.2
2023-07-21T10:18:10.040Z,68.3
2023-07-21T10:19:26.273Z,67.5
2023-07-21T10:20:42.515Z,66.3
2023-07-21T10:21:58.759Z,69.3
2023-07-21T10:23:15.004Z,69.3
2023-07-21T10:24:31.243Z,66.8
2023-07-21T10:27:03.706Z,67.3
2023-07-21T10:28:18.990Z,66.8
2023-07-21T10:29:35.217Z,64.2
2023-07-21T10:30:51.586Z,67.6
2023-07-21T10:32:07.820Z,67.6
2023-07-21T10:33:24.056Z,67.5
2023-07-21T10:34:40.291Z,69.7
2023-07-21T10:35:56.531Z,70.3
2023-07-21T10:37:12.786Z,69.4
2023-07-21T10:38:29.025Z,66.9
2023-07-21T10:39:45.252Z,65.8
2023-07-21T10:41:01.634Z,69.3
2023-07-21T10:42:18.006Z,64.2
2023-07-21T10:43:34.247Z,66
2023-07-21T10:44:50.476Z,65.5
2023-07-21T10:46:06.715Z,66.2
2023-07-21T10:47:22.960Z,66.8
2023-07-21T10:48:39.201Z,67.5
2023-07-21T10:49:55.437Z,67.2
2023-07-21T10:51:11.687Z,68.5
2023-07-21T10:52:27.910Z,68.6
2023-07-21T10:53:44.156Z,69.8
2023-07-21T10:55:00.408Z,70.9
2023-07-21T10:56:16.644Z,69.3
2023-07-21T10:57:32.872Z,69.9
2023-07-21T10:58:48.128Z,71.2
2023-07-21T11:00:04.370Z,71
2023-07-21T11:01:20.609Z,70.8
2023-07-21T11:02:36.858Z,70.2
2023-07-21T11:03:53.091Z,70.3
2023-07-21T11:05:09.334Z,70.7
2023-07-21T11:06:25.569Z,71.6
2023-07-21T11:07:41.810Z,70.9
2023-07-21T11:08:58.056Z,71.5
2023-07-21T11:10:14.306Z,71.4
2023-07-21T11:11:30.534Z,70.4
2023-07-21T11:12:46.783Z,71.6
2023-07-21T11:14:03.020Z,70.6
2023-07-21T11:15:18.260Z,71.2
2023-07-21T11:16:34.518Z,71.2
2023-07-21T11:17:50.752Z,70.4
2023-07-21T11:19:06.987Z,71
2023-07-21T11:20:23.230Z,70.5
2023-07-21T11:21:39.479Z,71.2
2023-07-21T11:22:55.708Z,71.8
2023-07-21T11:24:11.956Z,71.7
2023-07-21T11:25:28.197Z,72.9
2023-07-21T11:26:44.425Z,73.1
2023-07-21T11:28:00.679Z,74.2
2023-07-21T11:29:16.901Z,73.9
2023-07-21T11:30:33.147Z,74.7
2023-07-21T11:31:48.419Z,74.7
2023-07-21T11:33:04.637Z,74
2023-07-21T11:34:20.894Z,73.8
2023-07-21T11:35:37.129Z,74.4
2023-07-21T11:36:53.363Z,74
2023-07-21T11:38:09.597Z,73.9
2023-07-21T11:39:25.846Z,75.9
2023-07-21T11:40:42.085Z,76.4
2023-07-21T11:41:58.314Z,77.1
2023-07-21T11:43:14.569Z,75.6
2023-07-21T11:44:30.813Z,75.7
2023-07-21T11:45:47.048Z,75.2
2023-07-21T11:48:19.532Z,76.4
2023-07-21T11:49:34.788Z,77
2023-07-21T11:50:51.018Z,77.1
2023-07-21T11:52:07.259Z,76.1
2023-07-21T11:53:23.497Z,77.1
2023-07-21T11:54:39.734Z,77.2
2023-07-21T11:55:55.986Z,77.1
2023-07-21T11:57:12.225Z,76.8
2023-07-21T11:58:28.461Z,76.1
2023-07-21T11:59:44.701Z,77.4
2023-07-21T12:01:00.948Z,78.3
2023-07-21T12:02:17.184Z,79
2023-07-21T12:03:33.427Z,80.4
2023-07-21T12:04:49.660Z,79.1
2023-07-21T12:06:04.920Z,80.5
2023-07-21T12:07:21.150Z,77.8
2023-07-21T12:08:37.398Z,78.5
2023-07-21T12:09:53.640Z,80.1
2023-07-21T12:11:09.874Z,80.7
2023-07-21T12:12:26.103Z,76.5
2023-07-21T12:13:42.350Z,79.3
2023-07-21T12:14:58.582Z,78.3
2023-07-21T12:16:14.822Z,77.8
2023-07-21T12:17:31.077Z,76.7
2023-07-21T12:18:47.310Z,76.9
2023-07-21T12:20:03.555Z,75.6
2023-07-21T12:21:19.789Z,77.1
2023-07-21T12:22:35.055Z,72.8
2023-07-21T12:23:51.281Z,77.4
2023-07-21T12:25:07.532Z,74.5
2023-07-21T12:26:23.766Z,75.7
2023-07-21T12:27:39.997Z,74.1
2023-07-21T12:28:56.252Z,73.8
2023-07-21T12:30:12.496Z,75.4
2023-07-21T12:31:28.733Z,75.3
2023-07-21T12:32:44.965Z,74.2
2023-07-21T12:34:01.217Z,74
2023-07-21T12:36:33.686Z,79.8
2023-07-21T12:37:49.936Z,76.2
2023-07-21T12:39:05.191Z,79.5
2023-07-21T12:41:37.652Z,81
2023-07-21T12:42:53.897Z,76.8
2023-07-21T12:44:10.152Z,74.3
2023-07-21T12:45:26.380Z,73.3
2023-07-21T12:46:42.625Z,74.3
2023-07-21T12:47:58.858Z,72.7
2023-07-21T12:49:15.095Z,72.7
2023-07-21T12:51:47.572Z,72.4
2023-07-21T12:53:02.834Z,75.5
2023-07-21T12:54:18.092Z,75.3
2023-07-21T12:55:34.342Z,74.5
2023-07-21T12:56:50.579Z,73
2023-07-21T12:58:06.825Z,72.8
2023-07-21T12:59:23.068Z,72.3
2023-07-21T13:00:39.290Z,72
2023-07-21T13:01:55.545Z,72.2
2023-07-21T13:03:11.777Z,72.7
2023-07-21T13:04:28.014Z,74.6
2023-07-21T13:05:43.269Z,74.9
2023-07-21T13:06:58.538Z,73.4
2023-07-21T13:08:14.778Z,74
2023-07-21T13:09:31.021Z,73
2023-07-21T13:10:47.244Z,72.4
2023-07-21T13:12:03.493Z,73.3
2023-07-21T13:13:19.727Z,71.1
2023-07-21T13:14:35.980Z,72.5
2023-07-21T13:15:52.212Z,72.3
2023-07-21T13:17:08.454Z,70.7
2023-07-21T13:18:24.687Z,69.1
2023-07-21T13:19:40.935Z,69
2023-07-21T13:20:57.169Z,69.7
2023-07-21T13:22:13.406Z,68.5
2023-07-21T13:23:28.674Z,69
2023-07-21T13:24:44.915Z,69.2
2023-07-21T13:26:01.145Z,67.4
2023-07-21T13:27:17.396Z,66.2
2023-07-21T13:28:33.621Z,66.5
2023-07-21T13:29:49.871Z,64.1
2023-07-21T13:31:06.100Z,63.1
2023-07-21T13:32:22.346Z,64.5
2023-07-21T13:33:38.596Z,62.1
2023-07-21T13:34:54.832Z,61.5
2023-07-21T13:37:27.312Z,63.3
2023-07-21T13:38:43.556Z,61.5
2023-07-21T13:39:58.801Z,62.9
2023-07-21T13:41:15.041Z,62.6
2023-07-21T13:42:31.291Z,62.9
2023-07-21T13:43:47.521Z,58.6
2023-07-21T13:45:03.771Z,59
2023-07-21T13:46:20.008Z,59.9
2023-07-21T13:47:36.238Z,58.4
2023-07-21T13:48:52.478Z,59.1
2023-07-21T13:50:08.732Z,60.4
2023-07-21T13:51:24.956Z,58.8
2023-07-21T13:52:41.200Z,61
2023-07-21T13:53:57.438Z,60.6
2023-07-21T13:55:13.684Z,61.7
2023-07-21T13:56:30.045Z,59.9
2023-07-21T13:57:46.281Z,60.6
2023-07-21T13:59:02.519Z,61.3
2023-07-21T14:00:18.759Z,59.3
2023-07-21T14:01:35.009Z,59.7
2023-07-21T14:02:51.247Z,60.4
2023-07-21T14:04:07.478Z,59.5
2023-07-21T14:06:39.962Z,60.8
2023-07-21T14:07:56.198Z,60.7
2023-07-21T14:09:11.474Z,60.1
2023-07-21T14:10:27.705Z,61.5
2023-07-21T14:11:43.945Z,58
2023-07-21T14:13:00.191Z,57.7
2023-07-21T14:14:16.432Z,58.9
2023-07-21T14:15:32.675Z,58.3
2023-07-21T14:16:48.904Z,58.9
2023-07-21T14:18:05.141Z,58.6
2023-07-21T14:19:21.383Z,58.6
2023-07-21T14:20:37.632Z,58.1
2023-07-21T14:21:53.868Z,58.4
2023-07-21T14:23:10.113Z,59.1
2023-07-21T14:24:26.343Z,59.1
2023-07-21T14:25:41.595Z,57
2023-07-21T14:26:57.833Z,56.6
2023-07-21T14:28:14.092Z,58.2
2023-07-21T14:29:30.316Z,57.4
2023-07-21T14:30:46.570Z,55.9
2023-07-21T14:32:02.798Z,56.5
2023-07-21T14:33:19.035Z,55.5
2023-07-21T14:35:51.514Z,55
2023-07-21T14:37:07.763Z,56.3
2023-07-21T14:38:24.003Z,54.6
2023-07-21T14:39:40.243Z,55.1
2023-07-21T14:40:56.480Z,54.7
2023-07-21T14:42:11.749Z,53.8
2023-07-21T14:43:27.982Z,54.7
2023-07-21T14:44:44.230Z,56.4
2023-07-21T14:46:00.453Z,55.6
2023-07-21T14:47:16.690Z,55.3
2023-07-21T14:48:32.942Z,56.1
2023-07-21T14:49:49.190Z,56.5
2023-07-21T14:51:05.417Z,56
2023-07-21T14:52:21.655Z,55.4
2023-07-21T14:53:37.907Z,55.6
2023-07-21T14:54:54.137Z,56.5
2023-07-21T14:56:10.389Z,55.6
2023-07-21T14:57:26.622Z,54.3
2023-07-21T14:58:42.976Z,54.4
2023-07-21T14:59:59.216Z,53.5
2023-07-21T15:01:15.469Z,53.9
2023-07-21T15:02:31.708Z,55.5
2023-07-21T15:03:47.933Z,54
2023-07-21T15:05:04.171Z,54
2023-07-21T15:06:20.421Z,55.2
2023-07-21T15:07:36.654Z,55.1
2023-07-21T15:08:52.901Z,54.4
2023-07-21T15:10:09.152Z,53.2
2023-07-21T15:11:25.375Z,53.4
2023-07-21T15:12:41.628Z,52.8
2023-07-21T15:13:57.853Z,53.5
2023-07-21T15:15:13.117Z,55.4
2023-07-21T15:16:29.368Z,55.8
2023-07-21T15:17:45.592Z,56.3
2023-07-21T15:19:01.846Z,56.9
2023-07-21T15:20:18.082Z,54.7
2023-07-21T15:21:34.324Z,56.9
2023-07-21T15:22:50.549Z,56.5
2023-07-21T15:24:06.798Z,56.1
2023-07-21T15:25:23.029Z,56.3
2023-07-21T15:26:39.000Z,59.2
2023-07-21T15:27:55.510Z,57.2
2023-07-21T15:29:11.767Z,57.6
2023-07-21T15:31:44.244Z,58.7
2023-07-21T15:32:59.498Z,57
2023-07-21T15:34:15.726Z,57.8
2023-07-21T15:36:48.207Z,59
2023-07-21T15:38:04.462Z,57.8
2023-07-21T15:39:20.695Z,57.2
2023-07-21T15:40:36.925Z,57.6
2023-07-21T15:41:53.000Z,58.9
2023-07-21T15:43:09.419Z,58.6
2023-07-21T15:44:25.648Z,60
2023-07-21T15:45:41.887Z,59.2
2023-07-21T15:46:58.125Z,59.5
2023-07-21T15:48:14.371Z,60.3
2023-07-21T15:49:29.624Z,60
2023-07-21T15:50:45.871Z,59.5
2023-07-21T15:52:02.098Z,59.5
2023-07-21T15:53:18.358Z,59
2023-07-21T15:54:34.595Z,58.8
2023-07-21T15:55:50.824Z,60.3
2023-07-21T15:57:07.071Z,59
2023-07-21T15:58:23.306Z,60
2023-07-21T15:59:39.551Z,61
2023-07-21T16:00:55.792Z,61.1
2023-07-21T16:02:12.024Z,60.9
2023-07-21T16:03:28.274Z,59.5
2023-07-21T16:04:44.498Z,59.1
2023-07-21T16:06:00.872Z,61.3
2023-07-21T16:07:17.106Z,61.2
2023-07-21T16:09:49.586Z,60.1
2023-07-21T16:11:05.836Z,60.8
2023-07-21T16:12:22.078Z,61.3
2023-07-21T16:14:54.539Z,60.9
2023-07-21T16:16:10.780Z,61.3
2023-07-21T16:17:27.020Z,61.8
2023-07-21T16:18:43.268Z,62
2023-07-21T16:19:59.502Z,60.9
2023-07-21T16:21:15.748Z,62.1
2023-07-21T16:22:31.000Z,63.1
2023-07-21T16:23:47.253Z,62.3
2023-07-21T16:25:03.482Z,62
2023-07-21T16:26:19.731Z,63.9
2023-07-21T16:27:35.959Z,62.4
2023-07-21T16:30:08.439Z,63.6
2023-07-21T16:31:23.694Z,62.5
2023-07-21T16:32:38.960Z,62.5
2023-07-21T16:33:55.208Z,62.8
2023-07-21T16:35:11.443Z,62.2
2023-07-21T16:36:27.687Z,64.2
2023-07-21T16:37:43.928Z,63.1
2023-07-21T16:39:00.150Z,64.2
2023-07-21T16:40:16.391Z,65.1
2023-07-21T16:41:32.638Z,65.6
2023-07-21T16:42:48.875Z,63.5
2023-07-21T16:44:04.138Z,63.3
2023-07-21T16:45:20.511Z,63.5
2023-07-21T16:46:36.746Z,63.2
2023-07-21T16:47:52.985Z,63.5
2023-07-21T16:49:09.210Z,63.4
2023-07-21T16:50:25.465Z,64.5
2023-07-21T16:51:41.694Z,63.9
2023-07-21T16:52:57.931Z,64.3
2023-07-21T16:54:14.185Z,66.4
2023-07-21T16:55:30.425Z,65.5
2023-07-21T16:56:46.648Z,64
2023-07-21T16:58:02.908Z,64.4
2023-07-21T17:00:35.382Z,64.9
2023-07-21T17:01:50.631Z,65.3
2023-07-21T17:03:06.870Z,65.8
2023-07-21T17:04:23.112Z,65.9
2023-07-21T17:05:39.000Z,66.2
2023-07-21T17:08:11.823Z,67.5
2023-07-21T17:09:27.101Z,68.8
2023-07-21T17:10:42.354Z,73.4
2023-07-21T17:11:58.584Z,79.5
2023-07-21T17:13:14.837Z,84
2023-07-21T17:15:47.301Z,87.5
2023-07-21T17:17:03.551Z,89.3
2023-07-21T17:18:19.787Z,90.8
2023-07-21T17:19:36.032Z,91.5
2023-07-21T17:20:52.269Z,93.1
2023-07-21T17:22:08.504Z,93.5
2023-07-21T17:23:24.756Z,93.5
2023-07-21T17:24:40.995Z,94.8
2023-07-21T17:25:57.222Z,95.2
2023-07-21T17:27:12.487Z,96.9
2023-07-21T17:28:28.734Z,97
2023-07-21T17:29:44.972Z,97.8
2023-07-21T17:31:01.211Z,97.7
2023-07-21T17:32:17.438Z,97.8
2023-07-21T17:33:33.675Z,98.5
2023-07-21T17:34:49.932Z,99.4
2023-07-21T17:36:05.176Z,99.3
2023-07-21T17:37:20.437Z,97.7
2023-07-21T17:38:36.678Z,98.5
2023-07-21T17:39:52.916Z,98.3
2023-07-21T17:41:09.168Z,99
2023-07-21T17:42:25.396Z,99
2023-07-21T17:43:41.632Z,98.2